OMAM/DHF METAR and TAF weather

Enter ICAO airport designator
Station Type Date Time Source
OMAM METAR 2019/06/26 09:30 UTC NOAA

OMAM 260930Z 20006KT 160V250 6000 SKC 46/13 Q1001 A2957


Station Type Date Time Source
OMAM Decoded METAR 2019/06/26 09:30 UTC NOAA

Station name not available
Jun 26, 2019 - 05:30 AM EDT / 2019.06.26 0930 UTC
Wind: from the SSW (200 degrees) at 7 MPH (6 KT) (direction variable):0
Visibility: 3 mile(s):0
Sky conditions: clear
Temperature: 114 F (46 C)
Dew Point: 55 F (13 C)
Relative Humidity: 14%
Pressure (altimeter): 29.57 in. Hg (1001 hPa)
ob: OMAM 260930Z 20006KT 160V250 6000 SKC 46/13 Q1001 A2957
cycle: 9

Station Type Date Time Source
OMAM TAF 2015/04/12 06:25 UTC NOAA

TAF OMAM 120525Z 1206/1312 16006KT CAVOK
BECMG 1213/1215 04009KT
BECMG 1221/1223 14006KT
BECMG 1309/1311 31013KT

Example: see airport list